Anthony, Indiana
Current Conditions -  °F | °C
As of 3:53 PM on Friday 31 Oct 2014 (Local Time) from KMIE Reporting Station
Overcast Overcast  
Wind Chill: 32°   Ceiling: 1900
Heat Index: 40°   Visibility: 10mi
Dew Point: 36°   Wind: 15mph
Humidity: 86%   Direction: 310°NW
Pressure: 29.93"   Gusts: NA
Location:  40.2763°N, 85.3769°W
Report Text: KMIE 311953Z 31013KT 10SM SCT013 BKN019 OVC025 04/02 A2993 RMK AO2 RAE35SNB01E11 SLP135 P0001 T00440022
Loading
Personal Weather Stations






























Interactive Weather Map
Tropical Storm Tracking
New forecast layout! Learn more

10-Day Weather Forecast

Advertisements
Track Severe Weather on mobile